Oceana Nas /Apollo Soucek Field/ Station
KNTU : now visible

Airfield :











YOU CAN JOIN US ON...

 
LOGIN :

Register | Disclaimer

   EN    FR    IT 

 









Legend :    VFR   Marginal VFR   IFR   Intensive IFR   Very Intensive IFR
Visi :
Ceiling :
>= 8 km
>= 3000ft
5 to 8 km
1000 to 3000 ft
1500m to 5 km
500 to 1000 ft
800 to 1500m
200 to 500 ft
< 800m
< 200 ft
Symbols :   Thunderstorms  Fog  Heavy snow  Heavy precipitations  Wind > 20 kt






- Airport Elevation : 23 ft


KNTU - Oceana Nas /Apollo Soucek Field/ Station

CURRENT METAR :
  • 240756Z 01008KT 10SM OVC026 22/17 A2997 RMK AO2 SLP150 T02170167

EXPIRED METARs :
  • 240744Z 02008KT 10SM BKN025 BKN030 OVC050 22/17 A2996 RMK AO2 T02170167
  • 240729Z 02009KT 10SM FEW023 FEW030 OVC050 22/17 A2996 RMK AO2 T02170167
  • 240656Z 30003KT 10SM FEW013 BKN018 OVC044 21/18 A2996 RMK AO2 SLP147 T02110183
  • 240649Z 00000KT 10SM BKN014 BKN024 OVC044 21/18 A2996 RMK AO2 T02110183
  • 240556Z 00000KT 10SM OVC048 21/18 A2996 RMK AO2 SLP147 T02060183 10211 20194 58001

TAF TAF KNTU
Valid from the 24 at 07:00 until the 25 at 07:00 UTC


2407/2507 35010KT 9999 VCSH SCT020 SCT055 OVC100 QNH2991INS
BECMG 2412/2414 01013G23KT 9999 NSW SCT040 SCT150 QNH3000INS
BECMG 2423/2501 02010KT 9999 FEW040 FEW250 QNH3001INS T19/2410Z T23/2419Z FN00236
KZDC FIR / North America



MET'MAP, your aeronautical weather chart ! - Copyright ORBIFLY December 2007 - Disclaimer

ORBIFLY MET'MAP TEAM :

Programming & Development : Alexandra Zaïnal
Concept & original design : Baudouin d'Aumeries
Assistance for programming : Marc-Olivier Méhu
Technical & hardware support : Manuel Goepfert

Contact : metmap@orbifly.com




SOURCES & CREDITS :

   NOAA       Earth
Advisory